Aviation Digital Data Service (ADDS)

Output produced by METARs form (0215 UTC 22 February 2019)
found at http://www.aviationweather.gov/metar/data/
 
Forecast for: LGKR (IOANNIS KAPODIST, GR)
Text: TAF LGKR 212300Z 2200/2224 VRB05KT 9999 FEW020
Forecast period: 0000 to 0900 UTC 22 February 2019
Forecast type: FROM: standard forecast or significant change
Winds: variable direction winds at 6 MPH (5 knots; 2.6 m/s)
Visibility: 6 or more miles 10+ km)
Ceiling: at least 12,000 feet AGL
Clouds: few clouds at 2000 feet AGL
Weather: no significant weather forecast for this period
Text: BECMG 2209/2211 33015KT SCT018 BKN080
Forecast period: 0900 UTC 22 February 2019 to 0000 UTC 23 February 2019
Forecast type: BECOMING: Conditions expected to become as follows by 1100 UTC 22 February 2019
Winds: from the NNW (330 degrees) at 17 MPH (15 knots; 7.7 m/s)
Visibility: 6 or more miles 10+ km)
Ceiling: 8000 feet AGL
Clouds: scattered clouds at 1800 feet AGL
broken clouds at 8000 feet AGL
Weather: no significant weather forecast for this period
Text: PROB30
Forecast period: 1000 to 1800 UTC 22 February 2019
Forecast type: TEMPORARY: The following changes expected for less than half the time period
Visibility: 3 miles (5 km)
Ceiling: 5000 feet AGL
Clouds: scattered clouds at 1200 feet AGL
broken clouds at 5000 feet AGL
Weather: RA  (moderate rain)